sensor_id;sensor_type;location;lat;lon;timestamp;pressure;altitude;pressure_sealevel;temperature;humidity
3844;BME280;1937;51.444;6.484;2022-07-29T00:00:13;68555.50;;;19.81;56.66
3844;BME280;1937;51.444;6.484;2022-07-29T00:02:41;68558.09;;;20.01;56.24
3844;BME280;1937;51.444;6.484;2022-07-29T00:05:10;68581.50;;;19.92;56.45
3844;BME280;1937;51.444;6.484;2022-07-29T00:07:41;68588.91;;;20.05;56.20
3844;BME280;1937;51.444;6.484;2022-07-29T00:10:10;68616.03;;;20.13;55.82
3844;BME280;1937;51.444;6.484;2022-07-29T00:12:38;68533.34;;;19.95;56.23
3844;BME280;1937;51.444;6.484;2022-07-29T00:15:08;68551.25;;;19.88;57.31
3844;BME280;1937;51.444;6.484;2022-07-29T00:17:38;68548.16;;;19.97;56.22
3844;BME280;1937;51.444;6.484;2022-07-29T00:20:08;68568.94;;;20.08;56.28
3844;BME280;1937;51.444;6.484;2022-07-29T00:22:39;68574.63;;;19.99;56.53
3844;BME280;1937;51.444;6.484;2022-07-29T00:25:08;68568.34;;;20.08;56.22
3844;BME280;1937;51.444;6.484;2022-07-29T00:27:36;68525.59;;;19.80;56.95
3844;BME280;1937;51.444;6.484;2022-07-29T00:30:07;68583.25;;;19.93;56.66
3844;BME280;1937;51.444;6.484;2022-07-29T00:32:35;68519.94;;;19.68;58.04
3844;BME280;1937;51.444;6.484;2022-07-29T00:35:06;68556.16;;;19.86;56.93
3844;BME280;1937;51.444;6.484;2022-07-29T00:37:52;68527.53;;;19.70;57.36
3844;BME280;1937;51.444;6.484;2022-07-29T00:40:20;68527.78;;;19.68;57.38
3844;BME280;1937;51.444;6.484;2022-07-29T00:42:50;68543.84;;;19.75;57.07
3844;BME280;1937;51.444;6.484;2022-07-29T00:45:19;68527.91;;;19.77;57.22
3844;BME280;1937;51.444;6.484;2022-07-29T00:47:49;68515.78;;;19.60;57.36
3844;BME280;1937;51.444;6.484;2022-07-29T00:50:20;68507.31;;;19.55;57.97
3844;BME280;1937;51.444;6.484;2022-07-29T00:52:49;68447.75;;;19.51;58.41
3844;BME280;1937;51.444;6.484;2022-07-29T00:55:18;68456.13;;;19.47;58.07
3844;BME280;1937;51.444;6.484;2022-07-29T00:57:49;68499.84;;;19.62;57.92
3844;BME280;1937;51.444;6.484;2022-07-29T01:00:19;68508.59;;;19.65;57.68
3844;BME280;1937;51.444;6.484;2022-07-29T01:02:49;68507.16;;;19.66;57.58
3844;BME280;1937;51.444;6.484;2022-07-29T01:05:21;68452.03;;;19.43;58.15
3844;BME280;1937;51.444;6.484;2022-07-29T01:07:53;68476.28;;;19.57;58.18
3844;BME280;1937;51.444;6.484;2022-07-29T01:10:23;68463.53;;;19.35;59.12
3844;BME280;1937;51.444;6.484;2022-07-29T01:12:57;68513.38;;;19.53;58.04
3844;BME280;1937;51.444;6.484;2022-07-29T01:15:27;68498.31;;;19.54;58.03
3844;BME280;1937;51.444;6.484;2022-07-29T01:18:10;68502.94;;;19.53;58.38
3844;BME280;1937;51.444;6.484;2022-07-29T01:20:59;68526.94;;;19.70;57.71
3844;BME280;1937;51.444;6.484;2022-07-29T01:23:48;68466.31;;;19.49;58.62
3844;BME280;1937;51.444;6.484;2022-07-29T01:26:28;68502.78;;;19.65;57.79
3844;BME280;1937;51.444;6.484;2022-07-29T01:29:11;68503.78;;;19.52;58.14
3844;BME280;1937;51.444;6.484;2022-07-29T01:31:45;68437.63;;;19.29;58.97
3844;BME280;1937;51.444;6.484;2022-07-29T01:34:18;68427.41;;;19.22;59.06
3844;BME280;1937;51.444;6.484;2022-07-29T01:36:50;68447.53;;;19.33;59.14
3844;BME280;1937;51.444;6.484;2022-07-29T01:39:25;68439.09;;;19.32;59.13
3844;BME280;1937;51.444;6.484;2022-07-29T01:41:57;68454.03;;;19.43;58.74
3844;BME280;1937;51.444;6.484;2022-07-29T01:44:31;68484.34;;;19.51;58.39
3844;BME280;1937;51.444;6.484;2022-07-29T01:47:02;68487.22;;;19.49;58.15
3844;BME280;1937;51.444;6.484;2022-07-29T01:49:35;68461.59;;;19.45;58.41
3844;BME280;1937;51.444;6.484;2022-07-29T01:52:07;68501.88;;;19.61;58.91
3844;BME280;1937;51.444;6.484;2022-07-29T01:54:38;68561.53;;;19.75;58.25
3844;BME280;1937;51.444;6.484;2022-07-29T01:57:09;68513.28;;;19.69;58.34
3844;BME280;1937;51.444;6.484;2022-07-29T01:59:40;68469.88;;;19.56;59.13
3844;BME280;1937;51.444;6.484;2022-07-29T02:02:08;68475.53;;;19.43;59.63
3844;BME280;1937;51.444;6.484;2022-07-29T02:04:36;68428.25;;;19.20;60.66
3844;BME280;1937;51.444;6.484;2022-07-29T02:07:05;68434.84;;;19.40;60.10
3844;BME280;1937;51.444;6.484;2022-07-29T02:09:34;68421.16;;;19.10;61.41
3844;BME280;1937;51.444;6.484;2022-07-29T02:12:03;68421.66;;;19.01;61.65
3844;BME280;1937;51.444;6.484;2022-07-29T02:14:36;68390.53;;;18.95;61.65
3844;BME280;1937;51.444;6.484;2022-07-29T02:17:06;68353.13;;;18.67;62.71
3844;BME280;1937;51.444;6.484;2022-07-29T02:19:34;68359.81;;;18.70;63.10
3844;BME280;1937;51.444;6.484;2022-07-29T02:22:05;68380.47;;;18.77;63.58
3844;BME280;1937;51.444;6.484;2022-07-29T02:24:33;68329.34;;;18.69;63.51
3844;BME280;1937;51.444;6.484;2022-07-29T02:27:03;68340.63;;;18.67;64.19
3844;BME280;1937;51.444;6.484;2022-07-29T02:29:31;68380.91;;;18.89;63.93
3844;BME280;1937;51.444;6.484;2022-07-29T02:31:59;68303.53;;;18.42;65.55
3844;BME280;1937;51.444;6.484;2022-07-29T02:34:29;68336.44;;;18.55;66.07
3844;BME280;1937;51.444;6.484;2022-07-29T02:36:56;68283.19;;;18.13;67.28
3844;BME280;1937;51.444;6.484;2022-07-29T02:39:24;68255.59;;;18.05;67.92
3844;BME280;1937;51.444;6.484;2022-07-29T02:41:55;68287.44;;;18.06;67.73
3844;BME280;1937;51.444;6.484;2022-07-29T02:44:25;68325.69;;;18.32;67.02
3844;BME280;1937;51.444;6.484;2022-07-29T02:46:54;68330.34;;;18.31;66.71
3844;BME280;1937;51.444;6.484;2022-07-29T02:49:34;68311.53;;;18.11;67.45
3844;BME280;1937;51.444;6.484;2022-07-29T02:52:04;68299.44;;;18.14;67.43
3844;BME280;1937;51.444;6.484;2022-07-29T02:54:38;68238.13;;;17.74;68.49
3844;BME280;1937;51.444;6.484;2022-07-29T02:57:11;68239.44;;;17.84;68.66
3844;BME280;1937;51.444;6.484;2022-07-29T02:59:42;68273.25;;;18.05;67.43
3844;BME280;1937;51.444;6.484;2022-07-29T03:02:11;68250.59;;;17.98;68.28
3844;BME280;1937;51.444;6.484;2022-07-29T03:04:42;68325.22;;;18.16;67.61
3844;BME280;1937;51.444;6.484;2022-07-29T03:07:10;68308.28;;;18.06;67.54
3844;BME280;1937;51.444;6.484;2022-07-29T03:09:38;68281.59;;;18.00;67.90
3844;BME280;1937;51.444;6.484;2022-07-29T03:12:07;68292.13;;;18.10;67.50
3844;BME280;1937;51.444;6.484;2022-07-29T03:14:35;68316.75;;;18.11;67.37
3844;BME280;1937;51.444;6.484;2022-07-29T03:17:03;68368.78;;;18.26;66.58
3844;BME280;1937;51.444;6.484;2022-07-29T03:19:31;68356.03;;;18.24;66.83
3844;BME280;1937;51.444;6.484;2022-07-29T03:21:59;68318.09;;;18.25;66.65
3844;BME280;1937;51.444;6.484;2022-07-29T03:24:27;68352.63;;;18.30;66.58
3844;BME280;1937;51.444;6.484;2022-07-29T03:26:55;68299.25;;;18.00;67.96
3844;BME280;1937;51.444;6.484;2022-07-29T03:29:22;68297.03;;;18.07;67.41
3844;BME280;1937;51.444;6.484;2022-07-29T03:31:49;68280.31;;;18.15;67.53
3844;BME280;1937;51.444;6.484;2022-07-29T03:34:15;68348.31;;;18.33;66.63
3844;BME280;1937;51.444;6.484;2022-07-29T03:36:42;68350.72;;;18.40;65.83
3844;BME280;1937;51.444;6.484;2022-07-29T03:39:11;68407.16;;;18.57;65.83
3844;BME280;1937;51.444;6.484;2022-07-29T03:41:42;68426.06;;;18.62;65.93
3844;BME280;1937;51.444;6.484;2022-07-29T03:44:10;68454.75;;;18.83;65.79
3844;BME280;1937;51.444;6.484;2022-07-29T03:46:39;68480.09;;;18.93;65.89
3844;BME280;1937;51.444;6.484;2022-07-29T03:49:06;68500.06;;;18.90;67.52
3844;BME280;1937;51.444;6.484;2022-07-29T03:51:34;68486.50;;;18.94;67.28
3844;BME280;1937;51.444;6.484;2022-07-29T03:54:02;68469.03;;;18.88;69.99
3844;BME280;1937;51.444;6.484;2022-07-29T03:56:32;68443.53;;;18.68;71.64
3844;BME280;1937;51.444;6.484;2022-07-29T03:59:02;68367.78;;;18.14;75.64
3844;BME280;1937;51.444;6.484;2022-07-29T04:01:29;68293.16;;;17.77;75.85
3844;BME280;1937;51.444;6.484;2022-07-29T04:03:57;68355.41;;;17.79;79.22
3844;BME280;1937;51.444;6.484;2022-07-29T04:06:23;68386.31;;;17.76;80.34
3844;BME280;1937;51.444;6.484;2022-07-29T04:08:50;68315.56;;;17.65;82.82
3844;BME280;1937;51.444;6.484;2022-07-29T04:11:17;68387.72;;;17.55;85.35
3844;BME280;1937;51.444;6.484;2022-07-29T04:13:45;68420.94;;;17.70;83.84
3844;BME280;1937;51.444;6.484;2022-07-29T04:16:12;68362.31;;;17.40;85.78
3844;BME280;1937;51.444;6.484;2022-07-29T04:18:38;68283.59;;;16.78;91.45
3844;BME280;1937;51.444;6.484;2022-07-29T04:21:05;68301.22;;;16.62;94.84
3844;BME280;1937;51.444;6.484;2022-07-29T04:23:32;68303.19;;;16.26;100.00
3844;BME280;1937;51.444;6.484;2022-07-29T04:25:58;68412.38;;;16.15;100.00
3844;BME280;1937;51.444;6.484;2022-07-29T04:28:26;68392.09;;;15.52;100.00
3844;BME280;1937;51.444;6.484;2022-07-29T04:30:54;68579.28;;;15.44;100.00
3844;BME280;1937;51.444;6.484;2022-07-29T04:33:20;68832.84;;;15.28;100.00
3844;BME280;1937;51.444;6.484;2022-07-29T04:35:47;69051.88;;;14.82;100.00
3844;BME280;1937;51.444;6.484;2022-07-29T04:38:14;69673.94;;;15.10;100.00
3844;BME280;1937;51.444;6.484;2022-07-29T04:40:40;70162.50;;;15.09;100.00
3844;BME280;1937;51.444;6.484;2022-07-29T04:43:07;70653.81;;;15.29;100.00
3844;BME280;1937;51.444;6.484;2022-07-29T04:45:33;71019.34;;;15.52;100.00
3844;BME280;1937;51.444;6.484;2022-07-29T04:48:01;70979.00;;;15.45;100.00
3844;BME280;1937;51.444;6.484;2022-07-29T04:50:28;70902.22;;;15.07;100.00
3844;BME280;1937;51.444;6.484;2022-07-29T04:52:54;71126.75;;;15.14;100.00
3844;BME280;1937;51.444;6.484;2022-07-29T04:55:21;71135.31;;;15.04;100.00
3844;BME280;1937;51.444;6.484;2022-07-29T04:57:47;71250.00;;;15.24;100.00
3844;BME280;1937;51.444;6.484;2022-07-29T05:00:14;71295.16;;;15.01;100.00
3844;BME280;1937;51.444;6.484;2022-07-29T05:02:41;71523.78;;;15.16;100.00
3844;BME280;1937;51.444;6.484;2022-07-29T05:05:09;71541.53;;;15.23;100.00
3844;BME280;1937;51.444;6.484;2022-07-29T05:07:36;71634.59;;;15.09;100.00
3844;BME280;1937;51.444;6.484;2022-07-29T05:10:03;71655.03;;;15.05;100.00
3844;BME280;1937;51.444;6.484;2022-07-29T05:12:30;71812.13;;;15.04;100.00
3844;BME280;1937;51.444;6.484;2022-07-29T05:14:57;71930.78;;;15.05;100.00
3844;BME280;1937;51.444;6.484;2022-07-29T05:17:23;71936.09;;;15.03;100.00
3844;BME280;1937;51.444;6.484;2022-07-29T05:19:50;72138.09;;;15.11;100.00
3844;BME280;1937;51.444;6.484;2022-07-29T05:22:18;72328.28;;;15.23;100.00
3844;BME280;1937;51.444;6.484;2022-07-29T05:24:46;72409.47;;;15.10;100.00
3844;BME280;1937;51.444;6.484;2022-07-29T05:27:13;72742.78;;;15.43;100.00
3844;BME280;1937;51.444;6.484;2022-07-29T05:29:39;72673.13;;;15.45;100.00
3844;BME280;1937;51.444;6.484;2022-07-29T05:32:06;72869.81;;;15.62;100.00
3844;BME280;1937;51.444;6.484;2022-07-29T05:34:33;72737.09;;;15.66;100.00
3844;BME280;1937;51.444;6.484;2022-07-29T05:37:00;72814.81;;;15.57;100.00
3844;BME280;1937;51.444;6.484;2022-07-29T05:39:28;73018.28;;;15.41;100.00
3844;BME280;1937;51.444;6.484;2022-07-29T05:41:54;73161.06;;;15.28;100.00
3844;BME280;1937;51.444;6.484;2022-07-29T05:44:21;73323.28;;;15.16;100.00
3844;BME280;1937;51.444;6.484;2022-07-29T05:46:47;73761.34;;;15.43;100.00
3844;BME280;1937;51.444;6.484;2022-07-29T05:49:14;73862.88;;;15.57;100.00
3844;BME280;1937;51.444;6.484;2022-07-29T05:51:41;73748.28;;;15.45;100.00
3844;BME280;1937;51.444;6.484;2022-07-29T05:54:07;73994.50;;;15.67;100.00
3844;BME280;1937;51.444;6.484;2022-07-29T05:56:36;73784.25;;;15.76;100.00
3844;BME280;1937;51.444;6.484;2022-07-29T05:59:03;73477.41;;;15.92;100.00
3844;BME280;1937;51.444;6.484;2022-07-29T06:01:30;73280.69;;;16.02;100.00
3844;BME280;1937;51.444;6.484;2022-07-29T06:03:56;73237.38;;;15.96;100.00
3844;BME280;1937;51.444;6.484;2022-07-29T06:06:23;73320.22;;;15.89;100.00
3844;BME280;1937;51.444;6.484;2022-07-29T06:08:49;73317.34;;;16.10;100.00
3844;BME280;1937;51.444;6.484;2022-07-29T06:11:16;73226.16;;;16.00;100.00
3844;BME280;1937;51.444;6.484;2022-07-29T06:13:44;73429.78;;;16.27;100.00
3844;BME280;1937;51.444;6.484;2022-07-29T06:16:11;73075.09;;;16.31;100.00
3844;BME280;1937;51.444;6.484;2022-07-29T06:18:37;73081.56;;;16.59;100.00
3844;BME280;1937;51.444;6.484;2022-07-29T06:21:08;72877.75;;;16.73;100.00
3844;BME280;1937;51.444;6.484;2022-07-29T06:23:35;72617.88;;;16.65;100.00
3844;BME280;1937;51.444;6.484;2022-07-29T06:26:02;72554.31;;;16.50;100.00
3844;BME280;1937;51.444;6.484;2022-07-29T06:28:28;72326.47;;;16.42;100.00
3844;BME280;1937;51.444;6.484;2022-07-29T06:30:56;72212.09;;;16.40;100.00
3844;BME280;1937;51.444;6.484;2022-07-29T06:33:23;72080.19;;;16.28;100.00
3844;BME280;1937;51.444;6.484;2022-07-29T06:35:50;72079.44;;;16.29;100.00
3844;BME280;1937;51.444;6.484;2022-07-29T06:38:16;72104.69;;;16.42;100.00
3844;BME280;1937;51.444;6.484;2022-07-29T06:40:43;72041.53;;;16.62;100.00
3844;BME280;1937;51.444;6.484;2022-07-29T06:43:34;71944.56;;;16.53;100.00
3844;BME280;1937;51.444;6.484;2022-07-29T06:46:06;71882.13;;;16.72;100.00
3844;BME280;1937;51.444;6.484;2022-07-29T06:48:33;71893.84;;;16.91;100.00
3844;BME280;1937;51.444;6.484;2022-07-29T06:51:01;71951.81;;;17.00;100.00
3844;BME280;1937;51.444;6.484;2022-07-29T06:53:29;71996.91;;;17.07;100.00
3844;BME280;1937;51.444;6.484;2022-07-29T06:55:56;72004.09;;;16.87;100.00
3844;BME280;1937;51.444;6.484;2022-07-29T06:58:23;72167.13;;;16.93;100.00
3844;BME280;1937;51.444;6.484;2022-07-29T07:00:50;72125.09;;;16.88;100.00
3844;BME280;1937;51.444;6.484;2022-07-29T07:03:19;72219.53;;;16.97;100.00
3844;BME280;1937;51.444;6.484;2022-07-29T07:05:46;72236.56;;;16.86;100.00
3844;BME280;1937;51.444;6.484;2022-07-29T07:08:13;72371.81;;;16.98;100.00
3844;BME280;1937;51.444;6.484;2022-07-29T07:10:41;72340.81;;;17.15;100.00
3844;BME280;1937;51.444;6.484;2022-07-29T07:13:08;72051.31;;;16.92;100.00
3844;BME280;1937;51.444;6.484;2022-07-29T07:15:35;72087.34;;;16.78;100.00
3844;BME280;1937;51.444;6.484;2022-07-29T07:18:02;72080.94;;;16.56;100.00
3844;BME280;1937;51.444;6.484;2022-07-29T07:20:31;72373.72;;;16.78;100.00
3844;BME280;1937;51.444;6.484;2022-07-29T07:22:57;72221.47;;;16.56;100.00
3844;BME280;1937;51.444;6.484;2022-07-29T07:25:24;72360.06;;;16.67;100.00
3844;BME280;1937;51.444;6.484;2022-07-29T07:27:51;72452.19;;;16.83;100.00
3844;BME280;1937;51.444;6.484;2022-07-29T07:30:17;72464.50;;;16.51;100.00
3844;BME280;1937;51.444;6.484;2022-07-29T07:32:44;72713.84;;;16.95;100.00
3844;BME280;1937;51.444;6.484;2022-07-29T07:35:11;72556.72;;;16.98;100.00
3844;BME280;1937;51.444;6.484;2022-07-29T07:37:39;72597.03;;;16.99;100.00
3844;BME280;1937;51.444;6.484;2022-07-29T07:40:08;72652.25;;;17.02;100.00
3844;BME280;1937;51.444;6.484;2022-07-29T07:42:35;72695.97;;;16.65;100.00
3844;BME280;1937;51.444;6.484;2022-07-29T07:45:02;72964.91;;;16.62;100.00
3844;BME280;1937;51.444;6.484;2022-07-29T07:47:30;72998.22;;;16.47;100.00
3844;BME280;1937;51.444;6.484;2022-07-29T07:49:56;73142.31;;;16.26;100.00
3844;BME280;1937;51.444;6.484;2022-07-29T07:52:23;73396.78;;;16.38;100.00
3844;BME280;1937;51.444;6.484;2022-07-29T07:54:51;73619.63;;;16.63;100.00
3844;BME280;1937;51.444;6.484;2022-07-29T07:57:18;73691.13;;;16.66;100.00
3844;BME280;1937;51.444;6.484;2022-07-29T07:59:44;73835.13;;;16.62;100.00
3844;BME280;1937;51.444;6.484;2022-07-29T08:02:11;73882.28;;;16.54;100.00
3844;BME280;1937;51.444;6.484;2022-07-29T08:04:38;73701.69;;;16.62;100.00
3844;BME280;1937;51.444;6.484;2022-07-29T08:07:06;73375.84;;;16.55;100.00
3844;BME280;1937;51.444;6.484;2022-07-29T08:09:33;73334.59;;;16.62;100.00
3844;BME280;1937;51.444;6.484;2022-07-29T08:12:02;73475.34;;;16.58;100.00
3844;BME280;1937;51.444;6.484;2022-07-29T08:14:31;73319.22;;;16.26;100.00
3844;BME280;1937;51.444;6.484;2022-07-29T08:16:59;73554.28;;;16.21;100.00
3844;BME280;1937;51.444;6.484;2022-07-29T08:19:25;73786.84;;;16.30;100.00
3844;BME280;1937;51.444;6.484;2022-07-29T08:21:52;73930.25;;;16.41;100.00
3844;BME280;1937;51.444;6.484;2022-07-29T08:24:19;73686.53;;;16.16;100.00
3844;BME280;1937;51.444;6.484;2022-07-29T08:27:05;73682.28;;;16.25;100.00
3844;BME280;1937;51.444;6.484;2022-07-29T08:29:32;73693.16;;;16.47;100.00
3844;BME280;1937;51.444;6.484;2022-07-29T08:31:58;73596.16;;;16.48;100.00
3844;BME280;1937;51.444;6.484;2022-07-29T08:34:25;73664.75;;;16.57;100.00
3844;BME280;1937;51.444;6.484;2022-07-29T08:36:52;73679.09;;;16.90;100.00
3844;BME280;1937;51.444;6.484;2022-07-29T08:39:18;73569.34;;;16.98;100.00
3844;BME280;1937;51.444;6.484;2022-07-29T08:41:45;73719.03;;;17.01;100.00
3844;BME280;1937;51.444;6.484;2022-07-29T08:44:15;73857.66;;;17.20;100.00
3844;BME280;1937;51.444;6.484;2022-07-29T08:46:42;73879.66;;;17.58;100.00
3844;BME280;1937;51.444;6.484;2022-07-29T08:49:09;73542.53;;;17.89;100.00
3844;BME280;1937;51.444;6.484;2022-07-29T08:51:36;73000.03;;;18.11;100.00
3844;BME280;1937;51.444;6.484;2022-07-29T08:54:03;72537.97;;;18.25;99.40
3844;BME280;1937;51.444;6.484;2022-07-29T08:56:29;72199.94;;;18.07;100.00
3844;BME280;1937;51.444;6.484;2022-07-29T08:58:58;72381.09;;;18.29;100.00
3844;BME280;1937;51.444;6.484;2022-07-29T09:01:27;72313.38;;;18.57;99.61
3844;BME280;1937;51.444;6.484;2022-07-29T09:03:56;72373.91;;;18.98;97.39
3844;BME280;1937;51.444;6.484;2022-07-29T09:06:24;71869.25;;;19.04;95.70
3844;BME280;1937;51.444;6.484;2022-07-29T09:08:54;71761.56;;;18.87;96.98
3844;BME280;1937;51.444;6.484;2022-07-29T09:11:24;71755.97;;;19.25;95.25
3844;BME280;1937;51.444;6.484;2022-07-29T09:13:51;71764.84;;;19.54;93.97
3844;BME280;1937;51.444;6.484;2022-07-29T09:16:18;71788.25;;;20.21;91.72
3844;BME280;1937;51.444;6.484;2022-07-29T09:18:46;71756.72;;;21.18;89.54
3844;BME280;1937;51.444;6.484;2022-07-29T09:21:14;71037.78;;;21.26;83.71
3844;BME280;1937;51.444;6.484;2022-07-29T09:24:01;70938.25;;;21.72;83.28
3844;BME280;1937;51.444;6.484;2022-07-29T09:26:28;70845.00;;;21.93;82.02
3844;BME280;1937;51.444;6.484;2022-07-29T09:28:55;70727.03;;;21.53;84.50
3844;BME280;1937;51.444;6.484;2022-07-29T09:31:32;70878.69;;;22.23;83.08
3844;BME280;1937;51.444;6.484;2022-07-29T09:34:01;70522.28;;;21.62;82.87
3844;BME280;1937;51.444;6.484;2022-07-29T09:36:28;70815.88;;;22.28;83.18
3844;BME280;1937;51.444;6.484;2022-07-29T09:38:58;70704.50;;;22.07;82.04
3844;BME280;1937;51.444;6.484;2022-07-29T09:41:25;70501.44;;;21.73;82.94
3844;BME280;1937;51.444;6.484;2022-07-29T09:43:54;70369.31;;;21.70;80.72
3844;BME280;1937;51.444;6.484;2022-07-29T09:46:20;70123.22;;;20.95;82.27
3844;BME280;1937;51.444;6.484;2022-07-29T09:49:07;70209.72;;;20.89;84.13
3844;BME280;1937;51.444;6.484;2022-07-29T09:51:34;70264.63;;;21.02;83.50
3844;BME280;1937;51.444;6.484;2022-07-29T09:54:01;70085.06;;;20.19;86.81
3844;BME280;1937;51.444;6.484;2022-07-29T09:56:39;70379.41;;;20.75;86.83
3844;BME280;1937;51.444;6.484;2022-07-29T09:59:07;70038.09;;;20.06;85.85
3844;BME280;1937;51.444;6.484;2022-07-29T10:01:34;70034.28;;;19.80;88.77
3844;BME280;1937;51.444;6.484;2022-07-29T10:04:01;70201.44;;;20.07;88.30
3844;BME280;1937;51.444;6.484;2022-07-29T10:06:29;70070.88;;;19.80;87.05
3844;BME280;1937;51.444;6.484;2022-07-29T10:09:07;70177.94;;;19.69;89.54
3844;BME280;1937;51.444;6.484;2022-07-29T10:11:36;70337.03;;;20.11;88.10
3844;BME280;1937;51.444;6.484;2022-07-29T10:14:17;70254.22;;;20.27;86.79
3844;BME280;1937;51.444;6.484;2022-07-29T10:16:48;70256.59;;;20.42;85.45
3844;BME280;1937;51.444;6.484;2022-07-29T10:19:24;70417.09;;;21.09;84.46
3844;BME280;1937;51.444;6.484;2022-07-29T10:21:56;70533.00;;;21.53;83.62
3844;BME280;1937;51.444;6.484;2022-07-29T10:24:27;70456.38;;;21.84;80.36
3844;BME280;1937;51.444;6.484;2022-07-29T10:26:58;70643.31;;;22.83;76.37
3844;BME280;1937;51.444;6.484;2022-07-29T10:29:26;70844.88;;;23.60;76.74
3844;BME280;1937;51.444;6.484;2022-07-29T10:32:05;70842.22;;;23.97;74.01
3844;BME280;1937;51.444;6.484;2022-07-29T10:34:45;70938.09;;;24.49;71.15
3844;BME280;1937;51.444;6.484;2022-07-29T10:37:23;70514.31;;;23.87;69.69
3844;BME280;1937;51.444;6.484;2022-07-29T10:40:04;70746.97;;;24.50;68.62
3844;BME280;1937;51.444;6.484;2022-07-29T10:43:00;70270.47;;;23.39;69.16
3844;BME280;1937;51.444;6.484;2022-07-29T10:45:29;70416.19;;;23.82;68.56
3844;BME280;1937;51.444;6.484;2022-07-29T10:48:04;70920.44;;;25.27;66.69
3844;BME280;1937;51.444;6.484;2022-07-29T10:50:52;70646.75;;;24.74;66.92
3844;BME280;1937;51.444;6.484;2022-07-29T10:53:23;70444.19;;;24.26;65.82
3844;BME280;1937;51.444;6.484;2022-07-29T10:55:52;70126.38;;;23.57;66.62
3844;BME280;1937;51.444;6.484;2022-07-29T10:58:22;70409.78;;;24.21;65.94
3844;BME280;1937;51.444;6.484;2022-07-29T11:00:54;70319.47;;;23.94;66.55
3844;BME280;1937;51.444;6.484;2022-07-29T11:03:43;70107.44;;;23.39;68.51
3844;BME280;1937;51.444;6.484;2022-07-29T11:06:13;70397.63;;;24.06;68.17
3844;BME280;1937;51.444;6.484;2022-07-29T11:08:43;70394.31;;;24.13;67.70
3844;BME280;1937;51.444;6.484;2022-07-29T11:11:34;70234.41;;;23.84;66.23
3844;BME280;1937;51.444;6.484;2022-07-29T11:14:04;70213.34;;;23.84;66.43
3844;BME280;1937;51.444;6.484;2022-07-29T11:16:59;70215.13;;;23.75;69.80
3844;BME280;1937;51.444;6.484;2022-07-29T11:19:29;70035.63;;;23.18;68.74
3844;BME280;1937;51.444;6.484;2022-07-29T11:21:58;70078.28;;;23.19;69.36
3844;BME280;1937;51.444;6.484;2022-07-29T11:24:29;70045.19;;;23.15;69.87
3844;BME280;1937;51.444;6.484;2022-07-29T11:27:14;69887.28;;;22.62;70.75
3844;BME280;1937;51.444;6.484;2022-07-29T11:29:52;69715.78;;;22.03;71.54
3844;BME280;1937;51.444;6.484;2022-07-29T11:32:22;69775.28;;;22.16;72.00
3844;BME280;1937;51.444;6.484;2022-07-29T11:35:10;69838.97;;;22.43;70.99
3844;BME280;1937;51.444;6.484;2022-07-29T11:37:39;69879.19;;;22.41;72.17
3844;BME280;1937;51.444;6.484;2022-07-29T11:40:19;69943.03;;;22.62;72.37
3844;BME280;1937;51.444;6.484;2022-07-29T11:42:49;70005.75;;;22.82;71.07
3844;BME280;1937;51.444;6.484;2022-07-29T11:45:44;69855.78;;;22.51;71.37
3844;BME280;1937;51.444;6.484;2022-07-29T11:48:17;69786.84;;;22.01;74.34
3844;BME280;1937;51.444;6.484;2022-07-29T11:50:46;70013.81;;;22.69;72.96
3844;BME280;1937;51.444;6.484;2022-07-29T11:53:15;69980.16;;;22.65;73.10
3844;BME280;1937;51.444;6.484;2022-07-29T11:55:45;69963.19;;;22.64;74.07
3844;BME280;1937;51.444;6.484;2022-07-29T11:58:23;70002.28;;;22.72;72.30
3844;BME280;1937;51.444;6.484;2022-07-29T12:00:52;69927.50;;;22.49;72.86
3844;BME280;1937;51.444;6.484;2022-07-29T12:03:26;70024.44;;;22.62;73.78
3844;BME280;1937;51.444;6.484;2022-07-29T12:05:55;70044.66;;;22.86;72.60
3844;BME280;1937;51.444;6.484;2022-07-29T12:08:24;70156.50;;;23.07;74.28
3844;BME280;1937;51.444;6.484;2022-07-29T12:10:55;70265.47;;;23.37;72.57
3844;BME280;1937;51.444;6.484;2022-07-29T12:13:24;70189.03;;;23.21;71.78
3844;BME280;1937;51.444;6.484;2022-07-29T12:15:56;70207.84;;;23.35;71.59
3844;BME280;1937;51.444;6.484;2022-07-29T12:18:25;70074.94;;;23.14;70.00
3844;BME280;1937;51.444;6.484;2022-07-29T12:20:58;70046.59;;;23.03;70.77
3844;BME280;1937;51.444;6.484;2022-07-29T12:23:30;70347.50;;;23.73;70.12
3844;BME280;1937;51.444;6.484;2022-07-29T12:26:03;70224.78;;;23.54;69.73
3844;BME280;1937;51.444;6.484;2022-07-29T12:28:35;70251.34;;;23.74;67.07
3844;BME280;1937;51.444;6.484;2022-07-29T12:31:06;70010.44;;;23.15;70.22
3844;BME280;1937;51.444;6.484;2022-07-29T12:33:42;70113.19;;;23.35;69.24
3844;BME280;1937;51.444;6.484;2022-07-29T12:36:10;70154.31;;;23.43;71.12
3844;BME280;1937;51.444;6.484;2022-07-29T12:38:42;70263.19;;;23.68;71.01
3844;BME280;1937;51.444;6.484;2022-07-29T12:41:12;70320.28;;;23.92;67.43
3844;BME280;1937;51.444;6.484;2022-07-29T12:43:52;70183.28;;;23.54;68.83
3844;BME280;1937;51.444;6.484;2022-07-29T12:46:20;70175.03;;;23.52;68.90
3844;BME280;1937;51.444;6.484;2022-07-29T12:48:54;70023.91;;;22.95;71.04
3844;BME280;1937;51.444;6.484;2022-07-29T12:51:31;70013.38;;;22.84;71.74
3844;BME280;1937;51.444;6.484;2022-07-29T12:54:09;69983.28;;;22.83;71.02
3844;BME280;1937;51.444;6.484;2022-07-29T12:56:40;70024.75;;;23.05;70.87
3844;BME280;1937;51.444;6.484;2022-07-29T12:59:16;70180.03;;;23.43;70.14
3844;BME280;1937;51.444;6.484;2022-07-29T13:01:46;70184.81;;;23.47;69.98
3844;BME280;1937;51.444;6.484;2022-07-29T13:04:26;70236.88;;;23.68;69.28
3844;BME280;1937;51.444;6.484;2022-07-29T13:07:03;70249.00;;;23.83;68.48
3844;BME280;1937;51.444;6.484;2022-07-29T13:09:41;70228.28;;;23.75;68.21
3844;BME280;1937;51.444;6.484;2022-07-29T13:12:12;70289.56;;;23.91;68.77
3844;BME280;1937;51.444;6.484;2022-07-29T13:14:43;70345.19;;;23.93;69.82
3844;BME280;1937;51.444;6.484;2022-07-29T13:17:13;70513.84;;;24.56;68.54
3844;BME280;1937;51.444;6.484;2022-07-29T13:19:44;70593.06;;;24.89;65.53
3844;BME280;1937;51.444;6.484;2022-07-29T13:22:15;70923.69;;;25.87;63.07
3844;BME280;1937;51.444;6.484;2022-07-29T13:24:49;71111.09;;;26.42;62.97
3844;BME280;1937;51.444;6.484;2022-07-29T13:27:20;71452.75;;;27.36;59.83
3844;BME280;1937;51.444;6.484;2022-07-29T13:29:50;71444.63;;;27.62;55.58
3844;BME280;1937;51.444;6.484;2022-07-29T13:32:22;71396.31;;;27.68;56.32